LROPLRBC

Guest
Details From LROP - Bucarest Otopeni Intl
To LRBC - BACAU
Flight Number -
Tags generated
Created
Modified
Stats Distance 122 nm / 226 km
Max Altitude 7,000 ft / 2,134 m
Waypoints 3
Social Downloads 7
Likes 0
Share VATSIM

Download

Looking for another format? Having issues loading an existing format? Contact us
Advertisement - Login to hide

Notes

Basic altitude profile: - Ascent Rate: 2500ft/min - Ascent Speed: 250kts - Cruise Altitude: 35000ft - Cruise Speed: 420kts - Descent Rate: 1500ft/min - Descent Speed: 250kts Options: - Use NATs: yes - Use PACOTS: yes - Use low airways: yes - Use high airways: yes

Route

LROP FOCSA LRBC

ID Type Via Altitude Latitude Longitude Leg Dist Tot Dist Heading (true) Name
O LROP APT - 0 ft / 0 m 44.57216˚ 26.10218˚ - 0 nm - Bucarest Otopeni Intl
FOCSA FIX - 7,000 ft / 2,134 m 45.99473˚ 26.68973˚ 88 nm 88 nm 16° / 16° -
O LRBC APT - 0 ft / 0 m 46.52190˚ 26.91018˚ 32 nm 121 nm 16° / 16° BACAU

Altitude Profile

Advertisement - Login to hide

LROP

Details ICAO LROP (OTP)
Name Bucarest Otopeni Intl
Region Romania
Timezone Europe/Bucharest (UTC+2.0)
Stats Elevation 314 ft / 96 m (AMSL)
Location 44.572161° 26.102177°
Runways 2
Magnetic Variation 5.605° E

METAR

LROP 121400Z 23009KT CAVOK 10/03 Q1015 NOSIG

Decode

TAF

TAF LROP 121100Z 1212/1312 25010KT CAVOK

Decode

Departure Runways

ID Width Length Bearing (true) Bearing (mag) Surface Threshold Offset Overrun Length
08L 148 ft / 45 m 11,457 ft / 3,492 m 83.91° 78.30° Asphalt 500 ft / 152 m 0 ft / 0 m
08R 148 ft / 45 m 11,455 ft / 3,491 m 83.89° 78.28° Asphalt 450 ft / 137 m 0 ft / 0 m
26L 148 ft / 45 m 11,455 ft / 3,491 m 263.92° 258.31° Asphalt 450 ft / 137 m 0 ft / 0 m
26R 148 ft / 45 m 11,457 ft / 3,492 m 263.94° 258.33° Asphalt 500 ft / 152 m 0 ft / 0 m

LRBC

Details ICAO LRBC (BCM)
Name BACAU
Region Romania
Timezone Europe/Bucharest (UTC+2.0)
Stats Elevation 607 ft / 185 m (AMSL)
Location 46.521904° 26.910177°
Runways 1
Magnetic Variation 6.067° E

METAR

LRBC 121400Z 18010KT CAVOK 07/04 Q1012

Decode

TAF

Not found

Destination Runways

ID Width Length Bearing (true) Bearing (mag) Surface Threshold Offset Overrun Length
16 262 ft / 80 m 8,166 ft / 2,489 m 164.87° 158.80° Concrete 0 ft / 0 m 0 ft / 0 m
34 262 ft / 80 m 8,166 ft / 2,489 m 344.87° 338.80° Concrete 0 ft / 0 m 0 ft / 0 m

Popular Alternatives